Time;durP1;ratioP1;P1;durP2;ratioP2;P2;SDS_P1;SDS_P2;PMS_P1;PMS_P2;Temp;Humidity;BMP_temperature;BMP_pressure;BME280_temperature;BME280_humidity;BME280_pressure;Samples;Min_cycle;Max_cycle;Signal;HPM_P1;HPM_P2
2023/08/12 00:00:23;;;;;;;3.75;1.73;;;;;;;;;;6303589;22;20090;-93
2023/08/12 00:02:49;;;;;;;3.17;1.77;;;;;;;;;;6302576;22;20019;-94
2023/08/12 00:05:15;;;;;;;3.35;2.00;;;;;;;;;;6302297;22;20025;-94
2023/08/12 00:07:41;;;;;;;1.98;1.60;;;;;;;;;;6304673;22;20086;-93
2023/08/12 00:10:08;;;;;;;3.08;1.90;;;;;;;;;;6303129;22;20022;-94
2023/08/12 00:12:35;;;;;;;3.92;2.42;;;;;;;;;;6303650;22;20064;-94
2023/08/12 00:15:01;;;;;;;2.88;1.98;;;;;;;;;;6303352;22;20056;-94
2023/08/12 00:17:27;;;;;;;4.00;2.10;;;;;;;;;;6300824;22;20011;-94
2023/08/12 00:19:53;;;;;;;2.72;2.10;;;;;;;;;;6304290;22;20015;-93
2023/08/12 00:22:19;;;;;;;3.10;2.10;;;;;;;;;;6301507;22;20018;-94
2023/08/12 00:24:45;;;;;;;3.00;1.98;;;;;;;;;;6302332;22;20133;-93
2023/08/12 00:27:11;;;;;;;6.47;2.42;;;;;;;;;;6302346;22;20086;-94
2023/08/12 00:29:37;;;;;;;3.85;2.40;;;;;;;;;;6302476;22;20022;-94
2023/08/12 00:32:04;;;;;;;4.68;2.58;;;;;;;;;;6275783;22;20023;-94
2023/08/12 00:34:30;;;;;;;4.70;2.75;;;;;;;;;;6302766;22;20011;-95
2023/08/12 00:36:56;;;;;;;3.13;2.25;;;;;;;;;;6302533;22;20048;-93
2023/08/12 00:39:22;;;;;;;4.88;2.45;;;;;;;;;;6304021;22;20018;-94
2023/08/12 00:41:48;;;;;;;4.28;2.05;;;;;;;;;;6301736;22;20015;-93
2023/08/12 00:44:14;;;;;;;3.92;2.53;;;;;;;;;;6276209;22;20133;-94
2023/08/12 00:46:41;;;;;;;4.72;2.70;;;;;;;;;;6304435;22;20038;-94
2023/08/12 00:49:08;;;;;;;4.35;2.78;;;;;;;;;;6308458;22;20015;-92
2023/08/12 00:51:35;;;;;;;3.50;2.28;;;;;;;;;;6308337;22;20026;-88
2023/08/12 00:54:03;;;;;;;4.85;2.53;;;;;;;;;;6309367;22;20022;-96
2023/08/12 00:56:29;;;;;;;3.00;2.25;;;;;;;;;;6311768;22;20011;-94
2023/08/12 00:58:55;;;;;;;5.20;2.85;;;;;;;;;;6300061;22;20408;-87
2023/08/12 01:01:22;;;;;;;4.85;2.40;;;;;;;;;;6301746;22;20095;-91
2023/08/12 01:03:48;;;;;;;4.70;2.60;;;;;;;;;;6303273;22;20035;-91
2023/08/12 01:06:14;;;;;;;4.90;2.83;;;;;;;;;;6303589;22;20305;-91
2023/08/12 01:08:40;;;;;;;3.95;2.53;;;;;;;;;;6303181;22;20317;-91
2023/08/12 01:11:15;;;;;;;5.15;3.30;;;;;;;;;;6303441;22;20015;-91
2023/08/12 01:13:50;;;;;;;5.40;3.25;;;;;;;;;;6301403;22;20015;-91
2023/08/12 01:16:18;;;;;;;5.35;3.10;;;;;;;;;;6304470;22;20325;-90
2023/08/12 01:18:44;;;;;;;4.47;2.88;;;;;;;;;;6282079;22;20556;-90
2023/08/12 01:21:13;;;;;;;8.48;3.80;;;;;;;;;;6302780;22;20018;-90
2023/08/12 01:23:39;;;;;;;8.02;3.55;;;;;;;;;;6301687;22;20015;-90
2023/08/12 01:26:05;;;;;;;3.85;3.35;;;;;;;;;;6301848;22;20016;-90
2023/08/12 01:28:31;;;;;;;7.20;3.30;;;;;;;;;;6275351;22;20023;-90
2023/08/12 01:31:16;;;;;;;5.05;3.17;;;;;;;;;;6302061;22;20011;-90
2023/08/12 01:33:42;;;;;;;5.45;3.33;;;;;;;;;;6304029;22;20011;-90
2023/08/12 01:36:18;;;;;;;7.60;3.65;;;;;;;;;;6301223;22;20018;-90
2023/08/12 01:38:44;;;;;;;6.45;3.80;;;;;;;;;;6301214;22;20007;-90
2023/08/12 01:41:11;;;;;;;5.18;3.83;;;;;;;;;;6302428;22;20042;-90
2023/08/12 01:43:37;;;;;;;6.30;3.70;;;;;;;;;;6302119;22;20047;-89
2023/08/12 01:46:03;;;;;;;6.22;3.28;;;;;;;;;;6301863;22;20341;-89
2023/08/12 01:48:29;;;;;;;7.32;4.47;;;;;;;;;;6303568;22;20441;-90
2023/08/12 01:50:55;;;;;;;8.40;3.88;;;;;;;;;;6303174;22;20068;-89
2023/08/12 01:53:21;;;;;;;6.30;3.75;;;;;;;;;;6303949;22;20011;-90
2023/08/12 01:55:49;;;;;;;5.70;3.28;;;;;;;;;;6315158;22;20037;-90
2023/08/12 01:58:15;;;;;;;7.47;3.78;;;;;;;;;;6320734;22;20018;-89
2023/08/12 02:00:41;;;;;;;7.78;4.45;;;;;;;;;;6294373;22;20019;-89
2023/08/12 02:03:07;;;;;;;6.35;4.15;;;;;;;;;;6320052;22;20060;-90
2023/08/12 02:05:34;;;;;;;7.45;4.43;;;;;;;;;;6306965;22;20011;-89
2023/08/12 02:08:00;;;;;;;6.15;4.10;;;;;;;;;;6303082;22;20015;-90
2023/08/12 02:10:26;;;;;;;5.80;3.85;;;;;;;;;;6304652;22;20120;-89
2023/08/12 02:12:52;;;;;;;8.27;4.07;;;;;;;;;;6277967;22;20066;-90
2023/08/12 02:15:18;;;;;;;6.63;4.15;;;;;;;;;;6302384;22;20008;-90
2023/08/12 02:17:44;;;;;;;8.20;4.35;;;;;;;;;;6302092;22;20019;-90
2023/08/12 02:20:10;;;;;;;8.35;4.93;;;;;;;;;;6301843;22;20289;-89
2023/08/12 02:22:36;;;;;;;6.40;4.38;;;;;;;;;;6303232;22;20079;-90
2023/08/12 02:25:02;;;;;;;9.00;4.18;;;;;;;;;;6305232;22;20011;-90
2023/08/12 02:27:28;;;;;;;5.10;4.03;;;;;;;;;;6304921;22;20336;-90
2023/08/12 02:29:54;;;;;;;9.65;5.25;;;;;;;;;;6305596;22;20340;-90
2023/08/12 02:32:20;;;;;;;6.10;4.28;;;;;;;;;;6305529;22;20047;-90
2023/08/12 02:34:46;;;;;;;9.43;4.95;;;;;;;;;;6306053;22;20015;-89
2023/08/12 02:37:12;;;;;;;7.32;4.95;;;;;;;;;;6303483;22;20011;-90
2023/08/12 02:39:39;;;;;;;8.18;5.13;;;;;;;;;;6305299;22;20418;-90
2023/08/12 02:42:05;;;;;;;9.73;5.93;;;;;;;;;;6304716;22;20022;-90
2023/08/12 02:44:31;;;;;;;7.82;5.50;;;;;;;;;;6303151;22;20015;-90
2023/08/12 02:46:57;;;;;;;8.90;5.55;;;;;;;;;;6304478;22;20017;-90
2023/08/12 02:49:23;;;;;;;9.80;5.75;;;;;;;;;;6306122;22;20015;-90
2023/08/12 02:51:49;;;;;;;10.10;5.47;;;;;;;;;;6304588;22;20463;-90
2023/08/12 02:54:15;;;;;;;7.20;5.40;;;;;;;;;;6308727;22;20019;-90
2023/08/12 02:56:41;;;;;;;8.30;4.95;;;;;;;;;;6310649;22;20656;-90
2023/08/12 02:59:07;;;;;;;10.07;5.93;;;;;;;;;;6311311;22;20015;-89
2023/08/12 03:01:33;;;;;;;8.32;5.43;;;;;;;;;;6321583;22;20045;-90
2023/08/12 03:03:59;;;;;;;10.93;6.20;;;;;;;;;;6329354;22;20007;-90
2023/08/12 03:06:25;;;;;;;8.85;6.13;;;;;;;;;;6330487;22;20026;-90
2023/08/12 03:08:51;;;;;;;8.20;5.25;;;;;;;;;;6329187;22;20026;-90
2023/08/12 03:11:18;;;;;;;7.55;5.18;;;;;;;;;;6276057;22;20034;-90
2023/08/12 03:13:44;;;;;;;7.30;5.72;;;;;;;;;;6302719;22;20011;-90
2023/08/12 03:16:14;;;;;;;8.95;5.68;;;;;;;;;;6303582;22;20018;-90
2023/08/12 03:18:41;;;;;;;10.45;5.93;;;;;;;;;;6304701;22;20019;-90
2023/08/12 03:21:10;;;;;;;11.55;5.47;;;;;;;;;;6279851;22;20015;-91
2023/08/12 03:23:36;;;;;;;8.15;5.75;;;;;;;;;;6303846;22;20011;-90
2023/08/12 03:26:02;;;;;;;10.45;5.97;;;;;;;;;;6303601;22;20420;-90
2023/08/12 03:28:28;;;;;;;9.55;5.63;;;;;;;;;;6303452;22;20034;-90
2023/08/12 03:30:54;;;;;;;9.27;5.90;;;;;;;;;;6301895;22;20015;-91
2023/08/12 03:33:20;;;;;;;9.80;5.22;;;;;;;;;;6300665;22;20011;-91
2023/08/12 03:35:46;;;;;;;12.52;6.43;;;;;;;;;;6302467;22;20019;-90
2023/08/12 03:38:13;;;;;;;10.88;6.10;;;;;;;;;;6300797;22;20019;-91
2023/08/12 03:40:39;;;;;;;9.57;5.65;;;;;;;;;;6304021;22;20016;-90
2023/08/12 03:43:05;;;;;;;10.25;6.18;;;;;;;;;;6301748;22;20019;-90
2023/08/12 03:45:31;;;;;;;9.63;6.30;;;;;;;;;;6303896;22;20012;-91
2023/08/12 03:47:57;;;;;;;11.52;6.60;;;;;;;;;;6302158;22;20003;-91
2023/08/12 03:50:23;;;;;;;8.07;5.38;;;;;;;;;;6301402;22;20094;-91
2023/08/12 03:52:49;;;;;;;9.80;6.35;;;;;;;;;;6301623;22;20046;-91
2023/08/12 03:55:15;;;;;;;9.38;6.07;;;;;;;;;;6303197;22;20019;-91
2023/08/12 03:57:41;;;;;;;8.07;5.35;;;;;;;;;;6302386;22;20011;-91
2023/08/12 04:00:08;;;;;;;9.40;6.10;;;;;;;;;;6228436;22;1089817;-91
2023/08/12 04:02:34;;;;;;;9.05;6.00;;;;;;;;;;6304875;22;20015;-90
2023/08/12 04:05:00;;;;;;;9.23;5.75;;;;;;;;;;6304356;22;20015;-90
2023/08/12 04:07:26;;;;;;;10.48;6.00;;;;;;;;;;6302452;22;20318;-91
2023/08/12 04:09:53;;;;;;;9.52;6.00;;;;;;;;;;6303180;22;20073;-90
2023/08/12 04:12:19;;;;;;;9.65;5.88;;;;;;;;;;6304061;22;20459;-91
2023/08/12 04:14:45;;;;;;;8.93;5.90;;;;;;;;;;6304060;22;20022;-90
2023/08/12 04:17:11;;;;;;;9.30;6.25;;;;;;;;;;6303632;22;20011;-90
2023/08/12 04:19:37;;;;;;;9.77;6.22;;;;;;;;;;6304724;22;20015;-90
2023/08/12 04:22:03;;;;;;;11.70;7.13;;;;;;;;;;6304632;22;20450;-90
2023/08/12 04:24:29;;;;;;;10.60;6.72;;;;;;;;;;6304232;22;20011;-91
2023/08/12 04:26:55;;;;;;;11.27;6.32;;;;;;;;;;6304329;22;20086;-91
2023/08/12 04:29:21;;;;;;;10.70;6.10;;;;;;;;;;6303240;22;20336;-91
2023/08/12 04:31:47;;;;;;;9.18;6.47;;;;;;;;;;6302977;22;20015;-91
2023/08/12 04:34:13;;;;;;;9.82;6.13;;;;;;;;;;6304189;22;20015;-91
2023/08/12 04:36:39;;;;;;;8.80;6.32;;;;;;;;;;6304046;22;20055;-91
2023/08/12 04:39:05;;;;;;;10.57;6.70;;;;;;;;;;6279978;22;20431;-90
2023/08/12 04:41:33;;;;;;;10.68;6.75;;;;;;;;;;6331482;22;20007;-90
2023/08/12 04:43:59;;;;;;;10.20;6.45;;;;;;;;;;6304723;22;20007;-90
2023/08/12 04:46:25;;;;;;;10.95;6.55;;;;;;;;;;6330214;22;20063;-91
2023/08/12 04:48:51;;;;;;;10.98;6.10;;;;;;;;;;6328387;22;20019;-90
2023/08/12 04:51:17;;;;;;;8.50;6.53;;;;;;;;;;6307144;22;20011;-91
2023/08/12 04:53:43;;;;;;;11.63;6.32;;;;;;;;;;6306842;22;20007;-92
2023/08/12 04:56:09;;;;;;;13.25;8.02;;;;;;;;;;6304943;22;20656;-91
2023/08/12 04:58:35;;;;;;;9.55;6.45;;;;;;;;;;6302563;22;20022;-91
2023/08/12 05:01:02;;;;;;;10.85;5.88;;;;;;;;;;6306988;22;20047;-91
2023/08/12 05:03:28;;;;;;;11.48;6.95;;;;;;;;;;6335085;22;20015;-92
2023/08/12 05:05:54;;;;;;;10.50;6.20;;;;;;;;;;6307649;22;20015;-89
2023/08/12 05:08:20;;;;;;;11.27;7.15;;;;;;;;;;6308510;22;20023;-91
2023/08/12 05:10:50;;;;;;;9.30;6.45;;;;;;;;;;6336507;22;20015;-90
2023/08/12 05:13:16;;;;;;;12.73;7.22;;;;;;;;;;6307957;22;20351;-92
2023/08/12 05:15:46;;;;;;;10.80;6.78;;;;;;;;;;6335254;22;20045;-91
2023/08/12 05:18:12;;;;;;;10.27;6.50;;;;;;;;;;6307538;22;20015;-92
2023/08/12 05:20:38;;;;;;;12.65;7.18;;;;;;;;;;6313351;22;20340;-96
2023/08/12 05:23:04;;;;;;;11.55;7.10;;;;;;;;;;6328769;22;20014;-96
2023/08/12 07:00:45;;;;;;;11.73;8.80;;;;;;;;;;6365066;22;20019;-87
2023/08/12 07:03:11;;;;;;;14.63;9.45;;;;;;;;;;6366084;22;20089;-88
2023/08/12 07:05:37;;;;;;;13.55;9.25;;;;;;;;;;6313225;22;20053;-91
2023/08/12 07:08:03;;;;;;;16.73;9.85;;;;;;;;;;6369148;22;20522;-90
2023/08/12 07:10:29;;;;;;;16.45;9.15;;;;;;;;;;6367433;22;20022;-90
2023/08/12 07:12:55;;;;;;;16.00;10.07;;;;;;;;;;6371591;22;20014;-91
2023/08/12 07:15:21;;;;;;;14.00;9.93;;;;;;;;;;6370526;22;20010;-91
2023/08/12 07:17:47;;;;;;;15.18;9.82;;;;;;;;;;6343298;22;20392;-93
2023/08/12 07:20:13;;;;;;;15.05;9.48;;;;;;;;;;6342213;22;20016;-94
2023/08/12 07:22:39;;;;;;;12.90;9.13;;;;;;;;;;6373644;22;20014;-92
2023/08/12 07:25:06;;;;;;;13.57;9.00;;;;;;;;;;6318697;22;20062;-90
2023/08/12 07:27:32;;;;;;;16.05;8.77;;;;;;;;;;6340464;22;20022;-91
2023/08/12 07:29:58;;;;;;;14.45;9.05;;;;;;;;;;6375956;22;20011;-91
2023/08/12 07:32:24;;;;;;;14.27;9.60;;;;;;;;;;6384043;22;20038;-94
2023/08/12 07:34:50;;;;;;;15.88;10.30;;;;;;;;;;6378727;22;20033;-91
2023/08/12 07:37:16;;;;;;;11.70;8.95;;;;;;;;;;6347257;22;20018;-91
2023/08/12 07:39:42;;;;;;;13.02;8.52;;;;;;;;;;6380243;22;20474;-90
2023/08/12 07:42:08;;;;;;;14.63;8.77;;;;;;;;;;6372269;22;20017;-89
2023/08/12 07:44:34;;;;;;;13.43;8.48;;;;;;;;;;6370797;22;20029;-89
2023/08/12 07:47:00;;;;;;;12.35;8.43;;;;;;;;;;6368316;22;20462;-89
2023/08/12 07:49:26;;;;;;;14.18;8.48;;;;;;;;;;6340388;22;20025;-90
2023/08/12 07:51:52;;;;;;;15.50;8.65;;;;;;;;;;6341409;22;20455;-91
2023/08/12 07:54:18;;;;;;;14.88;9.20;;;;;;;;;;6341639;22;20014;-94
2023/08/12 07:56:44;;;;;;;12.27;8.52;;;;;;;;;;6371040;22;20067;-95
2023/08/12 07:59:10;;;;;;;15.25;9.57;;;;;;;;;;6376974;22;20022;-96
2023/08/12 08:01:36;;;;;;;12.13;8.52;;;;;;;;;;6381000;22;20092;-96
2023/08/12 08:04:02;;;;;;;13.63;8.88;;;;;;;;;;6376559;22;20013;-95
2023/08/12 08:06:28;;;;;;;14.20;9.57;;;;;;;;;;6371580;22;20086;-94
2023/08/12 08:08:55;;;;;;;12.65;8.35;;;;;;;;;;6343321;22;20010;-95
2023/08/12 08:11:21;;;;;;;11.57;9.35;;;;;;;;;;6371017;22;20058;-92
2023/08/12 08:13:47;;;;;;;12.77;9.25;;;;;;;;;;6343962;22;20021;-94
2023/08/12 08:16:13;;;;;;;14.80;8.98;;;;;;;;;;6371948;22;20007;-96
2023/08/12 08:18:39;;;;;;;12.95;9.07;;;;;;;;;;6376393;22;20017;-95
2023/08/12 08:21:05;;;;;;;12.18;9.52;;;;;;;;;;6382405;22;20022;-95
2023/08/12 08:23:31;;;;;;;10.95;7.72;;;;;;;;;;6369925;22;20010;-92
2023/08/12 08:25:57;;;;;;;12.63;8.23;;;;;;;;;;6341964;22;20014;-93
2023/08/12 08:28:23;;;;;;;10.35;7.70;;;;;;;;;;6318311;22;20067;-93
2023/08/12 08:30:49;;;;;;;14.75;8.73;;;;;;;;;;6344115;22;20015;-92
2023/08/12 08:33:15;;;;;;;13.20;8.35;;;;;;;;;;6383121;22;20021;-94
2023/08/12 08:35:41;;;;;;;13.98;8.82;;;;;;;;;;6367877;22;20046;-94
2023/08/12 08:38:07;;;;;;;13.38;8.18;;;;;;;;;;6364658;22;20014;-94
2023/08/12 08:40:33;;;;;;;10.85;7.75;;;;;;;;;;6369341;22;20011;-92
2023/08/12 08:43:03;;;;;;;12.60;8.80;;;;;;;;;;6360610;22;20015;-93
2023/08/12 08:45:32;;;;;;;10.77;7.43;;;;;;;;;;6356234;22;19998;-94
2023/08/12 08:48:00;;;;;;;9.57;7.20;;;;;;;;;;6369055;22;19998;-93
2023/08/12 08:50:26;;;;;;;9.75;6.10;;;;;;;;;;6369159;22;20010;-91
2023/08/12 08:52:53;;;;;;;8.07;5.65;;;;;;;;;;6365567;22;20025;-94
2023/08/12 08:55:19;;;;;;;8.00;4.80;;;;;;;;;;6367384;22;20031;-94
2023/08/12 08:57:45;;;;;;;6.15;4.60;;;;;;;;;;6352423;22;20048;-94
2023/08/12 09:00:12;;;;;;;5.22;3.88;;;;;;;;;;6372700;22;20087;-94
2023/08/12 09:02:38;;;;;;;4.65;3.08;;;;;;;;;;6344434;22;20006;-93
2023/08/12 09:05:05;;;;;;;4.60;3.17;;;;;;;;;;6345574;22;20021;-93
2023/08/12 09:07:32;;;;;;;4.97;2.80;;;;;;;;;;6344298;22;20010;-94
2023/08/12 09:09:58;;;;;;;4.70;3.10;;;;;;;;;;6344667;22;20144;-95
2023/08/12 09:12:25;;;;;;;4.72;2.92;;;;;;;;;;6344403;22;20014;-95
2023/08/12 09:14:51;;;;;;;4.70;2.92;;;;;;;;;;6371384;22;20014;-95
2023/08/12 09:17:17;;;;;;;5.70;3.15;;;;;;;;;;6374299;22;20039;-96
2023/08/12 09:19:43;;;;;;;4.65;2.33;;;;;;;;;;6346687;22;20014;-96
2023/08/12 09:22:09;;;;;;;3.80;2.22;;;;;;;;;;6373049;22;20014;-95
2023/08/12 09:24:35;;;;;;;2.70;1.98;;;;;;;;;;6373384;22;20018;-94
2023/08/12 09:27:01;;;;;;;4.40;2.33;;;;;;;;;;6343931;22;20018;-91
2023/08/12 09:29:31;;;;;;;3.08;2.42;;;;;;;;;;6345718;22;20018;-96
2023/08/12 09:32:13;;;;;;;3.95;2.42;;;;;;;;;;6344635;22;20015;-93
2023/08/12 09:34:51;;;;;;;4.18;2.58;;;;;;;;;;6371834;22;20006;-95
2023/08/12 09:37:17;;;;;;;2.55;2.05;;;;;;;;;;6343056;22;20017;-95
2023/08/12 09:39:43;;;;;;;4.82;2.60;;;;;;;;;;6372007;22;20039;-95
2023/08/12 09:42:10;;;;;;;3.88;2.42;;;;;;;;;;6343533;22;20316;-90
2023/08/12 09:44:37;;;;;;;3.65;2.60;;;;;;;;;;6372864;22;20006;-94
2023/08/12 09:47:03;;;;;;;4.40;2.22;;;;;;;;;;6370792;22;20048;-92
2023/08/12 09:49:29;;;;;;;3.72;2.35;;;;;;;;;;6372128;22;20019;-95
2023/08/12 09:51:56;;;;;;;3.55;2.55;;;;;;;;;;6374242;22;20018;-93
2023/08/12 09:54:24;;;;;;;4.25;2.88;;;;;;;;;;6372091;22;20025;-95
2023/08/12 09:56:53;;;;;;;4.90;2.95;;;;;;;;;;6372700;22;20331;-91
2023/08/12 09:59:20;;;;;;;5.45;2.55;;;;;;;;;;6339042;22;20023;-94
2023/08/12 10:01:47;;;;;;;6.00;3.13;;;;;;;;;;6339379;22;20096;-93
2023/08/12 10:04:15;;;;;;;4.50;2.95;;;;;;;;;;6340138;22;20447;-89
2023/08/12 10:06:41;;;;;;;4.20;3.47;;;;;;;;;;6338664;22;20007;-90
2023/08/12 10:09:08;;;;;;;3.90;3.15;;;;;;;;;;6338730;22;20038;-92
2023/08/12 10:11:35;;;;;;;4.70;3.05;;;;;;;;;;6338970;22;20019;-94
2023/08/12 10:14:02;;;;;;;4.18;3.22;;;;;;;;;;6338184;22;20011;-89
2023/08/12 10:16:29;;;;;;;4.30;3.05;;;;;;;;;;6338440;22;20404;-94
2023/08/12 10:18:56;;;;;;;4.40;3.38;;;;;;;;;;6337989;22;20011;-91
2023/08/12 10:21:23;;;;;;;4.78;3.33;;;;;;;;;;6361769;22;20048;-90
2023/08/12 10:23:50;;;;;;;3.55;3.22;;;;;;;;;;6363138;22;20374;-89
2023/08/12 10:26:18;;;;;;;4.70;3.20;;;;;;;;;;6364001;22;19994;-92
2023/08/12 10:28:44;;;;;;;4.15;3.10;;;;;;;;;;6364654;22;20013;-93
2023/08/12 10:31:11;;;;;;;4.65;3.67;;;;;;;;;;6346790;22;20018;-94
2023/08/12 10:33:38;;;;;;;4.20;3.42;;;;;;;;;;6338609;22;20072;-93
2023/08/12 10:36:05;;;;;;;4.50;3.10;;;;;;;;;;6340506;22;20128;-91
2023/08/12 10:38:32;;;;;;;3.58;2.95;;;;;;;;;;6339948;22;20007;-93
2023/08/12 10:41:17;;;;;;;3.50;2.33;;;;;;;;;;6310721;22;20018;-92
2023/08/12 10:43:54;;;;;;;3.22;2.10;;;;;;;;;;6337830;22;20022;-91
2023/08/12 10:46:33;;;;;;;1.77;1.67;;;;;;;;;;6338944;22;20078;-93
2023/08/12 10:49:09;;;;;;;3.00;1.67;;;;;;;;;;6338264;22;20337;-94
2023/08/12 10:51:35;;;;;;;;;;;;;;;;;;6339159;22;20443;-89
2023/08/12 10:54:17;;;;;;;2.25;1.27;;;;;;;;;;6339501;22;19958;-93
2023/08/12 10:57:05;;;;;;;1.90;1.20;;;;;;;;;;6341436;22;20096;-93
2023/08/12 10:59:46;;;;;;;1.90;1.13;;;;;;;;;;6352580;22;20331;-93
2023/08/12 11:02:21;;;;;;;2.35;1.20;;;;;;;;;;6371060;22;20098;-92
2023/08/12 11:04:55;;;;;;;1.08;0.98;;;;;;;;;;6373007;22;20013;-93
2023/08/12 11:07:22;;;;;;;0.65;0.65;;;;;;;;;;6370926;22;20010;-93
2023/08/12 11:09:52;;;;;;;0.65;0.63;;;;;;;;;;6343556;22;20024;-92
2023/08/12 11:12:19;;;;;;;0.50;0.40;;;;;;;;;;6372196;22;20021;-94
2023/08/12 11:15:04;;;;;;;1.45;0.50;;;;;;;;;;6372389;22;20014;-94
2023/08/12 11:17:33;;;;;;;0.77;0.47;;;;;;;;;;6370119;22;20029;-93
2023/08/12 11:20:00;;;;;;;1.60;0.50;;;;;;;;;;6369222;22;20014;-92
2023/08/12 11:22:26;;;;;;;0.63;0.45;;;;;;;;;;6371003;22;20006;-93
2023/08/12 11:24:52;;;;;;;1.55;0.68;;;;;;;;;;6373845;22;20059;-91
2023/08/12 11:27:18;;;;;;;0.77;0.77;;;;;;;;;;6369558;22;20015;-91
2023/08/12 11:29:44;;;;;;;1.10;0.80;;;;;;;;;;6342914;22;20015;-91
2023/08/12 11:32:11;;;;;;;0.65;0.52;;;;;;;;;;6369171;22;20007;-90
2023/08/12 11:34:37;;;;;;;0.80;0.60;;;;;;;;;;6342017;22;20014;-91
2023/08/12 11:37:04;;;;;;;0.80;0.80;;;;;;;;;;6314851;22;20016;-91
2023/08/12 11:39:30;;;;;;;2.35;1.00;;;;;;;;;;6315598;22;20052;-89
2023/08/12 11:41:57;;;;;;;1.13;1.02;;;;;;;;;;6369302;22;20336;-90
2023/08/12 11:44:23;;;;;;;0.95;0.73;;;;;;;;;;6369496;22;20017;-89
2023/08/12 11:46:52;;;;;;;1.23;1.13;;;;;;;;;;6339842;22;20083;-89
2023/08/12 11:49:18;;;;;;;1.33;1.23;;;;;;;;;;6315581;22;20623;-88
2023/08/12 11:51:45;;;;;;;1.45;1.05;;;;;;;;;;6316356;22;20042;-89
2023/08/12 11:54:11;;;;;;;2.60;1.30;;;;;;;;;;6314449;22;20010;-89
2023/08/12 11:56:37;;;;;;;1.45;1.27;;;;;;;;;;6341461;22;20320;-90
2023/08/12 11:59:05;;;;;;;1.90;1.40;;;;;;;;;;6340757;22;20010;-90
2023/08/12 12:01:31;;;;;;;2.08;1.52;;;;;;;;;;6314199;22;20331;-92
2023/08/12 12:04:00;;;;;;;1.27;1.15;;;;;;;;;;6368926;22;20013;-92
2023/08/12 12:06:34;;;;;;;2.58;1.10;;;;;;;;;;6314440;22;20403;-89
2023/08/12 12:09:05;;;;;;;1.20;1.10;;;;;;;;;;6368193;22;20056;-91
2023/08/12 12:11:31;;;;;;;1.48;1.05;;;;;;;;;;6340174;22;20067;-89
2023/08/12 12:14:00;;;;;;;1.40;0.80;;;;;;;;;;6367847;22;20022;-91
2023/08/12 12:16:26;;;;;;;0.70;0.70;;;;;;;;;;6340717;22;20014;-94
2023/08/12 12:18:58;;;;;;;1.77;1.02;;;;;;;;;;6341233;22;20038;-90
2023/08/12 12:21:24;;;;;;;0.85;0.73;;;;;;;;;;6368871;22;20011;-95
2023/08/12 12:23:53;;;;;;;1.83;0.80;;;;;;;;;;6370405;22;20041;-91
2023/08/12 12:26:19;;;;;;;1.45;0.70;;;;;;;;;;6341483;22;20019;-95
2023/08/12 12:28:45;;;;;;;3.55;0.75;;;;;;;;;;6375189;22;20010;-95
2023/08/12 12:31:11;;;;;;;1.38;0.90;;;;;;;;;;6346508;22;20335;-90
2023/08/12 12:33:37;;;;;;;1.58;0.80;;;;;;;;;;6371837;22;20014;-94
2023/08/12 12:36:03;;;;;;;1.23;0.88;;;;;;;;;;6371822;22;20085;-84
2023/08/12 12:38:29;;;;;;;2.00;1.15;;;;;;;;;;6366273;22;20018;-84
2023/08/12 12:40:55;;;;;;;3.40;1.10;;;;;;;;;;6364913;22;20098;-87
2023/08/12 12:43:21;;;;;;;1.20;0.70;;;;;;;;;;6363210;22;20014;-88
2023/08/12 12:45:47;;;;;;;2.35;1.05;;;;;;;;;;6371337;22;20037;-91
2023/08/12 12:48:13;;;;;;;1.73;0.98;;;;;;;;;;6371035;22;20010;-89
2023/08/12 12:50:39;;;;;;;2.20;0.93;;;;;;;;;;6340237;22;20022;-89
2023/08/12 12:53:05;;;;;;;1.95;0.98;;;;;;;;;;6352018;22;20017;-92
2023/08/12 12:55:31;;;;;;;3.78;1.23;;;;;;;;;;6373830;22;20013;-86
2023/08/12 12:57:57;;;;;;;1.90;1.00;;;;;;;;;;6340060;22;20362;-91
2023/08/12 13:00:23;;;;;;;2.55;1.15;;;;;;;;;;6362784;22;20490;-91
2023/08/12 13:02:49;;;;;;;2.55;1.17;;;;;;;;;;6369718;22;20158;-92
2023/08/12 13:05:15;;;;;;;2.75;1.20;;;;;;;;;;6341164;22;20010;-89
2023/08/12 13:07:41;;;;;;;2.60;1.15;;;;;;;;;;6370206;22;20010;-93
2023/08/12 13:10:07;;;;;;;2.72;1.20;;;;;;;;;;6369432;22;20046;-91
2023/08/12 13:12:33;;;;;;;3.35;1.55;;;;;;;;;;6341778;22;20025;-94
2023/08/12 13:14:59;;;;;;;4.68;1.42;;;;;;;;;;6368335;22;20010;-91
2023/08/12 13:17:25;;;;;;;2.50;1.00;;;;;;;;;;6370964;22;20014;-92
2023/08/12 13:19:51;;;;;;;2.35;1.10;;;;;;;;;;6373272;22;20014;-95
2023/08/12 13:22:17;;;;;;;2.60;1.20;;;;;;;;;;6342595;22;20011;-92
2023/08/12 13:24:43;;;;;;;3.38;1.25;;;;;;;;;;6371178;22;20006;-93
2023/08/12 13:27:09;;;;;;;4.30;1.25;;;;;;;;;;6343265;22;20093;-94
2023/08/12 13:29:35;;;;;;;3.97;1.27;;;;;;;;;;6368975;22;20350;-89
2023/08/12 13:32:01;;;;;;;3.40;1.38;;;;;;;;;;6346380;22;20029;-95
2023/08/12 13:34:27;;;;;;;2.45;1.05;;;;;;;;;;6375818;22;20466;-94
2023/08/12 13:36:53;;;;;;;4.50;1.48;;;;;;;;;;6382503;22;20020;-95
2023/08/12 13:39:20;;;;;;;2.72;1.33;;;;;;;;;;6378026;22;20018;-92
2023/08/12 13:41:46;;;;;;;3.85;1.67;;;;;;;;;;6378127;22;20029;-96
2023/08/12 13:44:12;;;;;;;2.38;1.00;;;;;;;;;;6345426;22;20018;-95
2023/08/12 13:46:38;;;;;;;1.40;1.02;;;;;;;;;;6375148;22;20673;-95
2023/08/12 13:49:05;;;;;;;2.95;0.90;;;;;;;;;;6372774;22;20018;-93
2023/08/12 13:51:32;;;;;;;2.28;1.35;;;;;;;;;;6345763;22;20057;-93
2023/08/12 13:53:57;;;;;;;2.00;0.98;;;;;;;;;;6341161;22;20018;-90
2023/08/12 13:56:24;;;;;;;2.92;1.15;;;;;;;;;;6369305;22;20011;-90
2023/08/12 13:58:50;;;;;;;3.45;1.40;;;;;;;;;;6341123;22;20014;-91
2023/08/12 14:01:16;;;;;;;3.78;1.38;;;;;;;;;;6368796;22;20024;-88
2023/08/12 14:03:42;;;;;;;4.40;1.13;;;;;;;;;;6375789;22;20018;-94
2023/08/12 14:06:08;;;;;;;2.83;1.23;;;;;;;;;;6378142;22;20010;-94
2023/08/12 14:08:34;;;;;;;2.75;0.80;;;;;;;;;;6377783;22;20010;-91
2023/08/12 14:11:00;;;;;;;4.15;1.30;;;;;;;;;;6379022;22;20037;-94
2023/08/12 14:13:26;;;;;;;4.63;1.67;;;;;;;;;;6387004;22;20002;-92
2023/08/12 14:15:53;;;;;;;3.25;1.00;;;;;;;;;;6397010;22;20026;-94
2023/08/12 14:18:19;;;;;;;3.35;1.10;;;;;;;;;;6370364;22;20049;-91
2023/08/12 14:20:45;;;;;;;2.25;1.17;;;;;;;;;;6397175;22;20018;-92
2023/08/12 14:23:12;;;;;;;4.22;1.20;;;;;;;;;;6347276;22;20053;-92
2023/08/12 14:25:38;;;;;;;2.33;1.27;;;;;;;;;;6346959;22;20037;-89
2023/08/12 14:28:05;;;;;;;3.47;1.00;;;;;;;;;;6344506;22;20365;-93
2023/08/12 14:30:31;;;;;;;2.85;1.23;;;;;;;;;;6343905;22;20007;-91
2023/08/12 14:32:57;;;;;;;2.50;1.10;;;;;;;;;;6371157;22;20024;-92
2023/08/12 14:35:23;;;;;;;3.40;1.38;;;;;;;;;;6370585;22;20014;-88
2023/08/12 14:37:49;;;;;;;3.33;1.35;;;;;;;;;;6340678;22;20037;-89
2023/08/12 14:40:15;;;;;;;6.00;1.77;;;;;;;;;;6370638;22;20034;-92
2023/08/12 14:42:41;;;;;;;6.57;2.10;;;;;;;;;;6374241;22;20010;-95
2023/08/12 14:45:07;;;;;;;5.78;1.60;;;;;;;;;;6375554;22;20011;-92
2023/08/12 14:47:33;;;;;;;4.97;1.58;;;;;;;;;;6372364;22;20010;-89
2023/08/12 14:49:59;;;;;;;3.15;1.25;;;;;;;;;;6342453;22;20021;-90
2023/08/12 14:52:25;;;;;;;2.10;1.10;;;;;;;;;;6341932;22;20018;-91
2023/08/12 14:54:51;;;;;;;5.00;1.40;;;;;;;;;;6369851;22;20046;-90
2023/08/12 14:57:17;;;;;;;2.08;1.30;;;;;;;;;;6342484;22;20010;-90
2023/08/12 14:59:43;;;;;;;3.42;1.20;;;;;;;;;;6368708;22;20025;-88
2023/08/12 15:02:09;;;;;;;2.05;1.17;;;;;;;;;;6366734;22;20081;-88
2023/08/12 15:04:36;;;;;;;4.15;1.40;;;;;;;;;;6368278;22;20049;-88
2023/08/12 15:07:02;;;;;;;5.30;1.38;;;;;;;;;;6368839;22;20393;-89
2023/08/12 15:09:28;;;;;;;5.13;1.90;;;;;;;;;;6366046;22;20022;-87
2023/08/12 15:11:54;;;;;;;3.25;1.23;;;;;;;;;;6367882;22;20072;-86
2023/08/12 15:14:20;;;;;;;5.07;1.20;;;;;;;;;;6339417;22;20022;-86
2023/08/12 15:16:46;;;;;;;4.50;1.40;;;;;;;;;;6368121;22;20006;-84
2023/08/12 15:19:12;;;;;;;4.60;1.63;;;;;;;;;;6339709;22;20140;-89
2023/08/12 15:21:38;;;;;;;6.15;1.55;;;;;;;;;;6341246;22;20381;-86
2023/08/12 15:24:05;;;;;;;4.57;1.50;;;;;;;;;;6368027;22;20013;-89
2023/08/12 15:26:31;;;;;;;6.18;1.25;;;;;;;;;;6340052;22;20037;-88
2023/08/12 15:28:57;;;;;;;4.80;1.50;;;;;;;;;;6371557;22;20007;-87
2023/08/12 15:31:23;;;;;;;4.55;1.40;;;;;;;;;;6372062;22;20017;-87
2023/08/12 15:33:49;;;;;;;4.68;1.48;;;;;;;;;;6373287;22;20014;-87
2023/08/12 15:36:15;;;;;;;5.07;1.27;;;;;;;;;;6368466;22;20049;-86
2023/08/12 15:38:41;;;;;;;2.50;1.02;;;;;;;;;;6363567;22;20017;-87
2023/08/12 15:41:13;;;;;;;3.15;1.27;;;;;;;;;;6366227;22;20037;-89
2023/08/12 15:43:39;;;;;;;3.67;1.30;;;;;;;;;;6367319;22;20011;-85
2023/08/12 15:46:05;;;;;;;4.32;1.42;;;;;;;;;;6366394;22;20094;-88
2023/08/12 15:48:31;;;;;;;4.63;1.50;;;;;;;;;;6369356;22;20025;-88
2023/08/12 15:50:57;;;;;;;7.20;2.10;;;;;;;;;;6339678;22;20384;-89
2023/08/12 15:53:23;;;;;;;6.38;1.73;;;;;;;;;;6372168;22;20331;-86
2023/08/12 15:55:49;;;;;;;14.63;3.15;;;;;;;;;;6380098;22;20002;-91
2023/08/12 15:58:18;;;;;;;4.45;1.30;;;;;;;;;;6358868;22;20053;-88
2023/08/12 16:00:44;;;;;;;2.88;1.17;;;;;;;;;;6354178;22;20322;-85
2023/08/12 16:03:11;;;;;;;3.33;1.20;;;;;;;;;;6320689;22;20013;-90
2023/08/12 16:05:37;;;;;;;5.20;1.30;;;;;;;;;;6339028;22;20018;-87
2023/08/12 16:08:03;;;;;;;5.75;1.30;;;;;;;;;;6339232;22;20042;-90
2023/08/12 16:10:29;;;;;;;3.53;1.10;;;;;;;;;;6339920;22;20018;-87
2023/08/12 16:12:55;;;;;;;6.82;1.60;;;;;;;;;;6366324;22;20406;-89